Daily Tabular Data
[Select Refresh to Update]
9/2/26
Time Wind Dir Wind Spd Wind Gust Hum In Humidity Temp In Temp Raw Barom Tot Rain Wind Chill Heat Ix In Heat Index Dew Point DailyRain HourRain RainRate
° mph mph % % °F °F in in °F °F °F °F in in in/hr
12:00am 210 0 0 60 84 74.0 65.8 29.08 0.00 65.8 75.8 70.6 60.8 0.00 0.00 0.000
12:30am 210 0 0 60 85 73.4 64.9 29.09 0.00 64.9 75.2 69.8 60.3 0.00 0.00 0.000
1:00am 92 0 2 60 86 73.1 63.5 29.10 0.00 63.5 74.9 68.6 59.2 0.00 0.00 0.000
1:30am 91 2 5 60 87 73.0 63.1 29.10 0.00 63.1 74.8 68.3 59.2 0.00 0.00 0.000
2:00am 85 2 5 59 87 72.8 62.3 29.09 0.00 62.3 74.5 67.5 58.4 0.00 0.00 0.000
2:30am 92 1 5 60 87 72.0 62.3 29.09 0.00 62.3 73.8 67.5 58.4 0.00 0.00 0.000
3:00am 96 2 4 60 88 71.6 62.1 29.09 0.00 62.1 73.4 67.4 58.5 0.00 0.00 0.000
3:30am 94 3 6 60 87 71.2 61.8 29.09 0.00 61.8 73.0 67.0 57.9 0.00 0.00 0.000
4:00am 74 2 6 61 88 70.7 61.6 29.08 0.00 61.6 72.6 66.9 58.0 0.00 0.00 0.000
4:30am 77 0 3 60 88 71.3 61.6 29.08 0.00 61.6 73.1 66.9 58.0 0.00 0.00 0.000
5:00am 55 0 3 60 89 71.8 61.2 29.08 0.00 61.2 73.6 66.7 57.9 0.00 0.00 0.000
5:30am 96 0 2 60 90 71.9 60.9 29.08 0.00 60.9 73.7 66.5 58.0 0.00 0.00 0.000
6:00am 70 0 0 59 91 72.0 60.5 29.08 0.00 60.5 73.7 66.3 57.9 0.00 0.00 0.000
6:30am 80 0 0 60 92 71.8 60.5 29.09 0.00 60.5 73.6 66.4 58.2 0.00 0.00 0.000
7:00am 91 2 4 60 92 71.6 61.5 29.09 0.00 61.5 73.4 67.4 59.2 0.00 0.00 0.000
7:30am 93 2 4 61 89 71.8 64.0 29.10 0.00 64.0 73.7 69.5 60.7 0.00 0.00 0.000
8:00am 71 5 8 62 88 72.0 65.7 29.10 0.00 65.7 74.0 71.0 62.1 0.00 0.00 0.000
8:30am 134 2 7 62 83 72.5 67.8 29.10 0.00 67.8 74.5 72.4 62.5 0.00 0.00 0.000
9:00am 204 1 6 62 80 73.1 69.6 29.10 0.00 69.6 75.1 73.8 63.2 0.00 0.00 0.000
9:30am 276 0 6 61 76 74.5 70.9 29.10 0.00 70.9 76.4 74.6 63.0 0.00 0.00 0.000
10:00am 209 1 7 59 72 75.9 73.5 29.10 0.00 73.5 77.6 76.7 63.9 0.00 0.00 0.000
10:30am 221 1 7 57 66 77.0 75.9 29.10 0.00 75.9 78.5 78.4 63.7 0.00 0.00 0.000
11:00am 156 5 9 55 60 77.9 77.0 29.11 0.00 77.0 79.2 78.8 62.1 0.00 0.00 0.000
11:30am 212 4 8 53 60 78.7 79.1 29.10 0.00 79.1 79.8 80.9 64.0 0.00 0.00 0.000
12:00pm 237 1 7 53 56 79.4 80.0 29.09 0.00 80.0 80.5 81.4 62.9 0.00 0.00 0.000
12:30pm 220 2 8 51 52 80.1 81.4 29.08 0.00 81.4 81.0 82.4 62.1 0.00 0.00 0.000
1:00pm 270 1 9 50 48 80.5 84.3 29.08 0.00 84.3 81.3 85.1 62.5 0.00 0.00 0.000
1:30pm 252 3 10 49 48 81.0 83.6 29.07 0.00 83.6 81.6 84.2 61.9 0.00 0.00 0.000
2:00pm 134 3 12 48 50 81.4 84.3 29.06 0.00 84.3 81.9 85.5 63.7 0.00 0.00 0.000
2:30pm 220 4 11 48 48 81.4 84.2 29.06 0.00 84.2 81.9 85.0 62.4 0.00 0.00 0.000
3:00pm 267 3 9 48 52 81.3 82.5 29.06 0.00 82.5 81.8 83.7 63.1 0.00 0.00 0.000
3:30pm 277 6 12 48 55 81.6 80.4 29.05 0.00 80.4 82.1 81.7 62.8 0.00 0.00 0.000
4:00pm 132 4 11 47 55 81.8 80.0 29.04 0.00 80.0 82.1 81.3 62.4 0.00 0.00 0.000
4:30pm 213 3 8 46 56 82.2 79.6 29.04 0.00 79.6 82.4 81.0 62.5 0.00 0.00 0.000
5:00pm 228 2 6 46 54 82.5 79.8 29.03 0.00 79.8 82.7 81.0 61.7 0.00 0.00 0.000
5:30pm 277 2 9 45 57 82.9 77.6 29.03 0.00 77.6 83.0 79.1 61.2 0.00 0.00 0.000
6:00pm 250 0 9 46 65 83.2 74.9 29.03 0.00 74.9 83.4 77.3 62.4 0.00 0.00 0.000
6:30pm 226 3 9 45 64 83.0 73.7 29.04 0.00 73.7 83.1 76.0 60.8 0.00 0.00 0.000
7:00pm 262 0 7 45 67 82.2 72.1 29.04 0.00 72.1 82.3 74.7 60.6 0.00 0.00 0.000
7:30pm 278 3 5 48 74 81.8 70.2 29.04 0.00 70.2 82.3 73.6 61.5 0.00 0.00 0.000
8:00pm 288 0 6 49 75 81.7 68.6 29.04 0.00 68.6 82.3 72.2 60.4 0.00 0.00 0.000
8:30pm 211 0 3 50 79 79.6 68.3 29.05 0.00 68.3 80.4 72.4 61.5 0.00 0.00 0.000
9:00pm 274 0 2 53 79 77.7 67.0 29.06 0.00 67.0 78.8 71.1 60.3 0.00 0.00 0.000
9:30pm 274 0 0 53 82 77.5 66.0 29.07 0.00 66.0 78.6 70.5 60.4 0.00 0.00 0.000
10:00pm 142 0 1 53 81 77.8 66.1 29.07 0.00 66.1 78.9 70.5 60.1 0.00 0.00 0.000
10:30pm 141 0 0 53 81 77.7 65.6 29.07 0.00 65.6 78.8 70.0 59.6 0.00 0.00 0.000
11:00pm 95 0 1 53 82 77.4 65.1 29.07 0.00 65.1 78.5 69.6 59.5 0.00 0.00 0.000
11:30pm 95 0 0 53 83 77.2 64.2 29.07 0.00 64.2 78.3 68.8 58.9 0.00 0.00 0.000